sensor_id;sensor_type;location;lat;lon;timestamp;P1;durP1;ratioP1;P2;durP2;ratioP2
5995;SDS011;3026;53.612;7.278;2024-01-07T00:02:06;4.30;;;2.23;;
5995;SDS011;3026;53.612;7.278;2024-01-07T00:04:35;3.47;;;2.50;;
5995;SDS011;3026;53.612;7.278;2024-01-07T00:07:03;5.80;;;2.70;;
5995;SDS011;3026;53.612;7.278;2024-01-07T00:09:31;3.30;;;2.07;;
5995;SDS011;3026;53.612;7.278;2024-01-07T00:11:58;4.43;;;2.53;;
5995;SDS011;3026;53.612;7.278;2024-01-07T00:14:25;5.37;;;2.70;;
5995;SDS011;3026;53.612;7.278;2024-01-07T00:16:58;2.73;;;1.93;;
5995;SDS011;3026;53.612;7.278;2024-01-07T00:19:26;4.73;;;2.80;;
5995;SDS011;3026;53.612;7.278;2024-01-07T00:22:02;7.63;;;2.70;;
5995;SDS011;3026;53.612;7.278;2024-01-07T00:24:29;3.70;;;2.70;;
5995;SDS011;3026;53.612;7.278;2024-01-07T00:26:57;3.73;;;2.50;;
5995;SDS011;3026;53.612;7.278;2024-01-07T00:29:26;4.10;;;2.60;;
5995;SDS011;3026;53.612;7.278;2024-01-07T00:31:54;3.30;;;2.27;;
5995;SDS011;3026;53.612;7.278;2024-01-07T00:34:21;2.80;;;2.20;;
5995;SDS011;3026;53.612;7.278;2024-01-07T00:36:48;3.17;;;2.03;;
5995;SDS011;3026;53.612;7.278;2024-01-07T00:39:17;4.53;;;2.57;;
5995;SDS011;3026;53.612;7.278;2024-01-07T00:41:45;2.57;;;2.10;;
5995;SDS011;3026;53.612;7.278;2024-01-07T00:44:12;3.83;;;2.67;;
5995;SDS011;3026;53.612;7.278;2024-01-07T00:46:45;3.73;;;2.13;;
5995;SDS011;3026;53.612;7.278;2024-01-07T00:49:12;5.90;;;2.10;;
5995;SDS011;3026;53.612;7.278;2024-01-07T00:51:40;4.57;;;2.03;;
5995;SDS011;3026;53.612;7.278;2024-01-07T00:54:07;4.53;;;2.10;;
5995;SDS011;3026;53.612;7.278;2024-01-07T00:56:36;3.07;;;1.90;;
5995;SDS011;3026;53.612;7.278;2024-01-07T00:59:09;2.10;;;1.70;;
5995;SDS011;3026;53.612;7.278;2024-01-07T01:01:37;4.57;;;2.13;;
5995;SDS011;3026;53.612;7.278;2024-01-07T01:04:04;2.87;;;1.80;;
5995;SDS011;3026;53.612;7.278;2024-01-07T01:06:31;6.97;;;2.00;;
5995;SDS011;3026;53.612;7.278;2024-01-07T01:08:58;3.00;;;1.77;;
5995;SDS011;3026;53.612;7.278;2024-01-07T01:11:26;2.87;;;1.97;;
5995;SDS011;3026;53.612;7.278;2024-01-07T01:13:55;4.40;;;2.13;;
5995;SDS011;3026;53.612;7.278;2024-01-07T01:16:24;2.63;;;1.90;;
5995;SDS011;3026;53.612;7.278;2024-01-07T01:18:51;3.70;;;1.83;;
5995;SDS011;3026;53.612;7.278;2024-01-07T01:21:18;3.97;;;2.07;;
5995;SDS011;3026;53.612;7.278;2024-01-07T01:23:47;3.00;;;1.80;;
5995;SDS011;3026;53.612;7.278;2024-01-07T01:26:15;5.20;;;2.07;;
5995;SDS011;3026;53.612;7.278;2024-01-07T01:28:42;3.10;;;2.00;;
5995;SDS011;3026;53.612;7.278;2024-01-07T01:31:14;2.53;;;1.90;;
5995;SDS011;3026;53.612;7.278;2024-01-07T01:33:44;3.73;;;2.07;;
5995;SDS011;3026;53.612;7.278;2024-01-07T01:36:11;3.17;;;1.53;;
5995;SDS011;3026;53.612;7.278;2024-01-07T01:38:40;2.77;;;1.70;;
5995;SDS011;3026;53.612;7.278;2024-01-07T01:41:07;3.97;;;1.73;;
5995;SDS011;3026;53.612;7.278;2024-01-07T01:43:35;3.50;;;2.07;;
5995;SDS011;3026;53.612;7.278;2024-01-07T01:46:02;5.93;;;1.53;;
5995;SDS011;3026;53.612;7.278;2024-01-07T01:48:32;3.80;;;1.53;;
5995;SDS011;3026;53.612;7.278;2024-01-07T01:51:00;4.37;;;1.90;;
5995;SDS011;3026;53.612;7.278;2024-01-07T01:53:28;2.53;;;1.50;;
5995;SDS011;3026;53.612;7.278;2024-01-07T01:55:56;4.03;;;1.40;;
5995;SDS011;3026;53.612;7.278;2024-01-07T01:58:27;2.07;;;1.40;;
5995;SDS011;3026;53.612;7.278;2024-01-07T02:01:00;3.57;;;1.63;;
5995;SDS011;3026;53.612;7.278;2024-01-07T02:03:33;2.50;;;1.20;;
5995;SDS011;3026;53.612;7.278;2024-01-07T02:06:06;2.90;;;1.50;;
5995;SDS011;3026;53.612;7.278;2024-01-07T02:08:33;3.87;;;1.40;;
5995;SDS011;3026;53.612;7.278;2024-01-07T02:11:13;3.87;;;1.70;;
5995;SDS011;3026;53.612;7.278;2024-01-07T02:13:42;3.53;;;1.53;;
5995;SDS011;3026;53.612;7.278;2024-01-07T02:16:12;4.53;;;1.47;;
5995;SDS011;3026;53.612;7.278;2024-01-07T02:18:41;1.93;;;1.53;;
5995;SDS011;3026;53.612;7.278;2024-01-07T02:21:10;3.10;;;1.30;;
5995;SDS011;3026;53.612;7.278;2024-01-07T02:23:40;2.40;;;1.47;;
5995;SDS011;3026;53.612;7.278;2024-01-07T02:26:08;2.67;;;1.70;;
5995;SDS011;3026;53.612;7.278;2024-01-07T02:28:36;7.03;;;1.60;;
5995;SDS011;3026;53.612;7.278;2024-01-07T02:31:03;3.43;;;1.60;;
5995;SDS011;3026;53.612;7.278;2024-01-07T02:33:31;1.97;;;1.60;;
5995;SDS011;3026;53.612;7.278;2024-01-07T02:36:02;1.97;;;1.77;;
5995;SDS011;3026;53.612;7.278;2024-01-07T02:38:30;1.83;;;1.30;;
5995;SDS011;3026;53.612;7.278;2024-01-07T02:40:57;3.43;;;1.53;;
5995;SDS011;3026;53.612;7.278;2024-01-07T02:43:27;3.03;;;1.60;;
5995;SDS011;3026;53.612;7.278;2024-01-07T02:45:54;3.13;;;1.77;;
5995;SDS011;3026;53.612;7.278;2024-01-07T02:48:22;2.13;;;1.63;;
5995;SDS011;3026;53.612;7.278;2024-01-07T02:50:50;3.13;;;2.07;;
5995;SDS011;3026;53.612;7.278;2024-01-07T02:53:19;3.60;;;1.70;;
5995;SDS011;3026;53.612;7.278;2024-01-07T02:55:46;2.87;;;1.87;;
5995;SDS011;3026;53.612;7.278;2024-01-07T02:58:13;6.00;;;1.93;;
5995;SDS011;3026;53.612;7.278;2024-01-07T03:00:42;2.37;;;1.70;;
5995;SDS011;3026;53.612;7.278;2024-01-07T03:03:10;3.87;;;1.60;;
5995;SDS011;3026;53.612;7.278;2024-01-07T03:05:38;5.07;;;1.63;;
5995;SDS011;3026;53.612;7.278;2024-01-07T03:08:10;4.67;;;1.70;;
5995;SDS011;3026;53.612;7.278;2024-01-07T03:10:37;2.67;;;1.60;;
5995;SDS011;3026;53.612;7.278;2024-01-07T03:13:04;3.43;;;1.80;;
5995;SDS011;3026;53.612;7.278;2024-01-07T03:15:32;3.13;;;1.90;;
5995;SDS011;3026;53.612;7.278;2024-01-07T03:18:01;4.10;;;1.53;;
5995;SDS011;3026;53.612;7.278;2024-01-07T03:20:28;6.33;;;1.80;;
5995;SDS011;3026;53.612;7.278;2024-01-07T03:22:57;2.33;;;1.57;;
5995;SDS011;3026;53.612;7.278;2024-01-07T03:25:26;2.30;;;1.67;;
5995;SDS011;3026;53.612;7.278;2024-01-07T03:27:53;3.37;;;1.40;;
5995;SDS011;3026;53.612;7.278;2024-01-07T03:30:22;3.20;;;1.60;;
5995;SDS011;3026;53.612;7.278;2024-01-07T03:32:49;2.00;;;1.50;;
5995;SDS011;3026;53.612;7.278;2024-01-07T03:35:17;9.73;;;1.73;;
5995;SDS011;3026;53.612;7.278;2024-01-07T03:37:46;2.87;;;1.70;;
5995;SDS011;3026;53.612;7.278;2024-01-07T03:40:13;3.53;;;2.43;;
5995;SDS011;3026;53.612;7.278;2024-01-07T03:42:41;1.77;;;1.50;;
5995;SDS011;3026;53.612;7.278;2024-01-07T03:45:08;4.10;;;2.00;;
5995;SDS011;3026;53.612;7.278;2024-01-07T03:47:37;2.63;;;1.50;;
5995;SDS011;3026;53.612;7.278;2024-01-07T03:50:04;2.57;;;2.00;;
5995;SDS011;3026;53.612;7.278;2024-01-07T03:52:35;2.60;;;1.37;;
5995;SDS011;3026;53.612;7.278;2024-01-07T03:55:02;2.70;;;1.73;;
5995;SDS011;3026;53.612;7.278;2024-01-07T03:57:30;6.40;;;2.00;;
5995;SDS011;3026;53.612;7.278;2024-01-07T04:00:00;2.57;;;1.30;;
5995;SDS011;3026;53.612;7.278;2024-01-07T04:02:27;2.60;;;1.87;;
5995;SDS011;3026;53.612;7.278;2024-01-07T04:04:54;1.80;;;1.40;;
5995;SDS011;3026;53.612;7.278;2024-01-07T04:07:22;2.10;;;1.47;;
5995;SDS011;3026;53.612;7.278;2024-01-07T04:09:50;3.03;;;1.50;;
5995;SDS011;3026;53.612;7.278;2024-01-07T04:12:18;4.20;;;1.53;;
5995;SDS011;3026;53.612;7.278;2024-01-07T04:14:45;3.20;;;1.40;;
5995;SDS011;3026;53.612;7.278;2024-01-07T04:17:13;3.63;;;1.83;;
5995;SDS011;3026;53.612;7.278;2024-01-07T04:19:41;1.47;;;1.30;;
5995;SDS011;3026;53.612;7.278;2024-01-07T04:22:08;5.27;;;1.50;;
5995;SDS011;3026;53.612;7.278;2024-01-07T04:24:36;1.23;;;1.10;;
5995;SDS011;3026;53.612;7.278;2024-01-07T04:27:06;1.70;;;1.30;;
5995;SDS011;3026;53.612;7.278;2024-01-07T04:29:33;2.40;;;1.50;;
5995;SDS011;3026;53.612;7.278;2024-01-07T04:32:01;2.07;;;1.47;;
5995;SDS011;3026;53.612;7.278;2024-01-07T04:34:28;3.03;;;1.60;;
5995;SDS011;3026;53.612;7.278;2024-01-07T04:36:57;4.00;;;1.60;;
5995;SDS011;3026;53.612;7.278;2024-01-07T04:39:24;2.63;;;1.60;;
5995;SDS011;3026;53.612;7.278;2024-01-07T04:41:51;3.77;;;1.40;;
5995;SDS011;3026;53.612;7.278;2024-01-07T04:44:20;2.47;;;1.50;;
5995;SDS011;3026;53.612;7.278;2024-01-07T04:46:48;2.03;;;1.40;;
5995;SDS011;3026;53.612;7.278;2024-01-07T04:49:16;2.50;;;1.30;;
5995;SDS011;3026;53.612;7.278;2024-01-07T04:51:44;1.83;;;1.30;;
5995;SDS011;3026;53.612;7.278;2024-01-07T04:54:11;2.87;;;1.50;;
5995;SDS011;3026;53.612;7.278;2024-01-07T04:56:41;4.93;;;1.30;;
5995;SDS011;3026;53.612;7.278;2024-01-07T04:59:08;2.97;;;1.67;;
5995;SDS011;3026;53.612;7.278;2024-01-07T05:01:41;1.67;;;1.27;;
5995;SDS011;3026;53.612;7.278;2024-01-07T05:04:08;3.57;;;1.57;;
5995;SDS011;3026;53.612;7.278;2024-01-07T05:06:36;2.53;;;1.30;;
5995;SDS011;3026;53.612;7.278;2024-01-07T05:09:03;1.40;;;1.10;;
5995;SDS011;3026;53.612;7.278;2024-01-07T05:11:31;5.80;;;1.63;;
5995;SDS011;3026;53.612;7.278;2024-01-07T05:13:58;4.33;;;1.50;;
5995;SDS011;3026;53.612;7.278;2024-01-07T05:16:26;2.80;;;1.60;;
5995;SDS011;3026;53.612;7.278;2024-01-07T05:18:55;2.03;;;1.50;;
5995;SDS011;3026;53.612;7.278;2024-01-07T05:21:23;3.63;;;1.47;;
5995;SDS011;3026;53.612;7.278;2024-01-07T05:23:56;2.87;;;1.50;;
5995;SDS011;3026;53.612;7.278;2024-01-07T05:26:24;3.90;;;1.50;;
5995;SDS011;3026;53.612;7.278;2024-01-07T05:28:52;2.03;;;1.53;;
5995;SDS011;3026;53.612;7.278;2024-01-07T05:31:19;2.87;;;1.73;;
5995;SDS011;3026;53.612;7.278;2024-01-07T05:33:47;4.07;;;1.47;;
5995;SDS011;3026;53.612;7.278;2024-01-07T05:36:16;3.03;;;1.40;;
5995;SDS011;3026;53.612;7.278;2024-01-07T05:38:45;2.37;;;1.47;;
5995;SDS011;3026;53.612;7.278;2024-01-07T05:41:12;2.00;;;1.30;;
5995;SDS011;3026;53.612;7.278;2024-01-07T05:43:40;2.40;;;1.60;;
5995;SDS011;3026;53.612;7.278;2024-01-07T05:46:07;1.50;;;1.40;;
5995;SDS011;3026;53.612;7.278;2024-01-07T05:48:41;1.63;;;1.50;;
5995;SDS011;3026;53.612;7.278;2024-01-07T05:51:09;2.07;;;1.30;;
5995;SDS011;3026;53.612;7.278;2024-01-07T05:53:39;4.27;;;1.53;;
5995;SDS011;3026;53.612;7.278;2024-01-07T05:56:06;2.47;;;1.50;;
5995;SDS011;3026;53.612;7.278;2024-01-07T05:58:37;3.23;;;1.43;;
5995;SDS011;3026;53.612;7.278;2024-01-07T06:01:09;3.50;;;1.80;;
5995;SDS011;3026;53.612;7.278;2024-01-07T06:03:36;2.30;;;1.40;;
5995;SDS011;3026;53.612;7.278;2024-01-07T06:06:04;1.87;;;1.47;;
5995;SDS011;3026;53.612;7.278;2024-01-07T06:08:32;2.60;;;1.43;;
5995;SDS011;3026;53.612;7.278;2024-01-07T06:11:01;1.67;;;1.43;;
5995;SDS011;3026;53.612;7.278;2024-01-07T06:13:28;5.33;;;1.37;;
5995;SDS011;3026;53.612;7.278;2024-01-07T06:15:56;5.70;;;1.30;;
5995;SDS011;3026;53.612;7.278;2024-01-07T06:18:26;3.47;;;1.13;;
5995;SDS011;3026;53.612;7.278;2024-01-07T06:20:53;2.60;;;1.67;;
5995;SDS011;3026;53.612;7.278;2024-01-07T06:23:21;2.73;;;1.73;;
5995;SDS011;3026;53.612;7.278;2024-01-07T06:25:48;2.60;;;1.67;;
5995;SDS011;3026;53.612;7.278;2024-01-07T06:28:17;2.80;;;1.50;;
5995;SDS011;3026;53.612;7.278;2024-01-07T06:30:44;2.17;;;1.30;;
5995;SDS011;3026;53.612;7.278;2024-01-07T06:33:11;4.80;;;1.73;;
5995;SDS011;3026;53.612;7.278;2024-01-07T06:35:40;2.67;;;1.73;;
5995;SDS011;3026;53.612;7.278;2024-01-07T06:38:08;4.50;;;1.60;;
5995;SDS011;3026;53.612;7.278;2024-01-07T06:40:35;3.33;;;1.60;;
5995;SDS011;3026;53.612;7.278;2024-01-07T06:43:04;4.03;;;1.67;;
5995;SDS011;3026;53.612;7.278;2024-01-07T06:45:33;3.70;;;1.67;;
5995;SDS011;3026;53.612;7.278;2024-01-07T06:48:00;4.47;;;1.77;;
5995;SDS011;3026;53.612;7.278;2024-01-07T06:50:27;1.70;;;1.60;;
5995;SDS011;3026;53.612;7.278;2024-01-07T06:52:54;2.93;;;2.20;;
5995;SDS011;3026;53.612;7.278;2024-01-07T06:55:21;2.33;;;1.40;;
5995;SDS011;3026;53.612;7.278;2024-01-07T06:57:55;1.87;;;1.63;;
5995;SDS011;3026;53.612;7.278;2024-01-07T07:00:22;4.30;;;1.60;;
5995;SDS011;3026;53.612;7.278;2024-01-07T07:02:52;2.97;;;1.87;;
5995;SDS011;3026;53.612;7.278;2024-01-07T07:05:19;2.30;;;1.37;;
5995;SDS011;3026;53.612;7.278;2024-01-07T07:07:47;4.43;;;1.53;;
5995;SDS011;3026;53.612;7.278;2024-01-07T07:10:14;2.90;;;1.40;;
5995;SDS011;3026;53.612;7.278;2024-01-07T07:12:42;1.20;;;1.10;;
5995;SDS011;3026;53.612;7.278;2024-01-07T07:15:09;2.30;;;1.67;;
5995;SDS011;3026;53.612;7.278;2024-01-07T07:17:38;3.07;;;1.40;;
5995;SDS011;3026;53.612;7.278;2024-01-07T07:20:09;1.30;;;1.20;;
5995;SDS011;3026;53.612;7.278;2024-01-07T07:22:36;3.17;;;1.43;;
5995;SDS011;3026;53.612;7.278;2024-01-07T07:25:04;3.67;;;1.60;;
5995;SDS011;3026;53.612;7.278;2024-01-07T07:27:32;1.70;;;1.60;;
5995;SDS011;3026;53.612;7.278;2024-01-07T07:29:59;3.37;;;1.60;;
5995;SDS011;3026;53.612;7.278;2024-01-07T07:32:27;2.03;;;1.20;;
5995;SDS011;3026;53.612;7.278;2024-01-07T07:34:54;4.20;;;1.87;;
5995;SDS011;3026;53.612;7.278;2024-01-07T07:37:27;4.67;;;1.73;;
5995;SDS011;3026;53.612;7.278;2024-01-07T07:39:55;4.90;;;1.60;;
5995;SDS011;3026;53.612;7.278;2024-01-07T07:42:25;2.63;;;1.33;;
5995;SDS011;3026;53.612;7.278;2024-01-07T07:44:52;1.33;;;1.23;;
5995;SDS011;3026;53.612;7.278;2024-01-07T07:47:22;1.83;;;1.50;;
5995;SDS011;3026;53.612;7.278;2024-01-07T07:49:48;4.13;;;1.70;;
5995;SDS011;3026;53.612;7.278;2024-01-07T07:52:18;1.83;;;1.50;;
5995;SDS011;3026;53.612;7.278;2024-01-07T07:54:49;2.30;;;1.53;;
5995;SDS011;3026;53.612;7.278;2024-01-07T07:57:18;3.03;;;1.50;;
5995;SDS011;3026;53.612;7.278;2024-01-07T07:59:46;2.87;;;1.63;;
5995;SDS011;3026;53.612;7.278;2024-01-07T08:02:15;2.27;;;1.57;;
5995;SDS011;3026;53.612;7.278;2024-01-07T08:04:42;1.93;;;1.47;;
5995;SDS011;3026;53.612;7.278;2024-01-07T08:07:09;6.07;;;1.90;;
5995;SDS011;3026;53.612;7.278;2024-01-07T08:09:37;3.30;;;1.87;;
5995;SDS011;3026;53.612;7.278;2024-01-07T08:12:12;3.63;;;1.60;;
5995;SDS011;3026;53.612;7.278;2024-01-07T08:14:39;4.60;;;1.87;;
5995;SDS011;3026;53.612;7.278;2024-01-07T08:17:06;3.33;;;2.27;;
5995;SDS011;3026;53.612;7.278;2024-01-07T08:19:46;6.53;;;3.20;;
5995;SDS011;3026;53.612;7.278;2024-01-07T08:22:19;6.10;;;2.40;;
5995;SDS011;3026;53.612;7.278;2024-01-07T08:24:50;3.60;;;2.23;;
5995;SDS011;3026;53.612;7.278;2024-01-07T08:27:20;2.60;;;2.40;;
5995;SDS011;3026;53.612;7.278;2024-01-07T08:29:47;3.80;;;2.67;;
5995;SDS011;3026;53.612;7.278;2024-01-07T08:32:18;2.33;;;2.13;;
5995;SDS011;3026;53.612;7.278;2024-01-07T08:34:47;3.63;;;2.20;;
5995;SDS011;3026;53.612;7.278;2024-01-07T08:37:15;6.30;;;2.70;;
5995;SDS011;3026;53.612;7.278;2024-01-07T08:39:42;4.27;;;2.70;;
5995;SDS011;3026;53.612;7.278;2024-01-07T08:42:09;3.03;;;1.90;;
5995;SDS011;3026;53.612;7.278;2024-01-07T08:44:38;2.30;;;2.00;;
5995;SDS011;3026;53.612;7.278;2024-01-07T08:47:06;3.50;;;2.03;;
5995;SDS011;3026;53.612;7.278;2024-01-07T08:49:33;3.17;;;2.87;;
5995;SDS011;3026;53.612;7.278;2024-01-07T08:52:01;4.40;;;2.83;;
5995;SDS011;3026;53.612;7.278;2024-01-07T08:54:29;3.43;;;2.33;;
5995;SDS011;3026;53.612;7.278;2024-01-07T08:56:56;8.37;;;2.40;;
5995;SDS011;3026;53.612;7.278;2024-01-07T08:59:23;3.37;;;1.80;;
5995;SDS011;3026;53.612;7.278;2024-01-07T09:01:55;2.60;;;2.07;;
5995;SDS011;3026;53.612;7.278;2024-01-07T09:04:24;4.83;;;2.50;;
5995;SDS011;3026;53.612;7.278;2024-01-07T09:06:51;4.83;;;2.37;;
5995;SDS011;3026;53.612;7.278;2024-01-07T09:09:18;3.80;;;2.00;;
5995;SDS011;3026;53.612;7.278;2024-01-07T09:11:46;2.53;;;1.77;;
5995;SDS011;3026;53.612;7.278;2024-01-07T09:14:13;3.00;;;2.13;;
5995;SDS011;3026;53.612;7.278;2024-01-07T09:16:42;2.97;;;2.20;;
5995;SDS011;3026;53.612;7.278;2024-01-07T09:19:11;3.13;;;1.80;;
5995;SDS011;3026;53.612;7.278;2024-01-07T09:21:39;3.47;;;2.30;;
5995;SDS011;3026;53.612;7.278;2024-01-07T09:24:06;6.10;;;2.43;;
5995;SDS011;3026;53.612;7.278;2024-01-07T09:26:34;5.20;;;2.90;;
5995;SDS011;3026;53.612;7.278;2024-01-07T09:29:01;2.83;;;1.90;;
5995;SDS011;3026;53.612;7.278;2024-01-07T09:31:28;4.70;;;2.70;;
5995;SDS011;3026;53.612;7.278;2024-01-07T09:33:57;2.50;;;2.07;;
5995;SDS011;3026;53.612;7.278;2024-01-07T09:36:26;7.47;;;2.67;;
5995;SDS011;3026;53.612;7.278;2024-01-07T09:38:53;2.50;;;1.90;;
5995;SDS011;3026;53.612;7.278;2024-01-07T09:41:20;4.10;;;1.93;;
5995;SDS011;3026;53.612;7.278;2024-01-07T09:43:47;5.20;;;2.73;;
5995;SDS011;3026;53.612;7.278;2024-01-07T09:46:14;5.00;;;2.30;;
5995;SDS011;3026;53.612;7.278;2024-01-07T09:48:43;5.67;;;2.90;;
5995;SDS011;3026;53.612;7.278;2024-01-07T09:51:10;4.73;;;2.70;;
5995;SDS011;3026;53.612;7.278;2024-01-07T09:53:41;3.53;;;2.40;;
5995;SDS011;3026;53.612;7.278;2024-01-07T09:56:12;3.53;;;2.03;;
5995;SDS011;3026;53.612;7.278;2024-01-07T09:58:47;5.67;;;2.57;;
5995;SDS011;3026;53.612;7.278;2024-01-07T10:01:15;4.60;;;1.90;;
5995;SDS011;3026;53.612;7.278;2024-01-07T10:03:44;4.00;;;2.30;;
5995;SDS011;3026;53.612;7.278;2024-01-07T10:06:11;4.03;;;2.27;;
5995;SDS011;3026;53.612;7.278;2024-01-07T10:08:41;4.13;;;2.00;;
5995;SDS011;3026;53.612;7.278;2024-01-07T10:11:09;2.57;;;1.87;;
5995;SDS011;3026;53.612;7.278;2024-01-07T10:13:36;3.97;;;1.70;;
5995;SDS011;3026;53.612;7.278;2024-01-07T10:16:07;2.27;;;1.90;;
5995;SDS011;3026;53.612;7.278;2024-01-07T10:18:34;5.60;;;2.30;;
5995;SDS011;3026;53.612;7.278;2024-01-07T10:21:05;4.97;;;1.90;;
5995;SDS011;3026;53.612;7.278;2024-01-07T10:23:34;3.50;;;2.40;;
5995;SDS011;3026;53.612;7.278;2024-01-07T10:26:03;3.73;;;2.47;;
5995;SDS011;3026;53.612;7.278;2024-01-07T10:28:31;7.17;;;2.47;;
5995;SDS011;3026;53.612;7.278;2024-01-07T10:30:59;4.63;;;2.57;;
5995;SDS011;3026;53.612;7.278;2024-01-07T10:33:30;3.93;;;2.17;;
5995;SDS011;3026;53.612;7.278;2024-01-07T10:36:00;4.63;;;2.50;;
5995;SDS011;3026;53.612;7.278;2024-01-07T10:38:29;4.77;;;2.40;;
5995;SDS011;3026;53.612;7.278;2024-01-07T10:40:56;5.13;;;2.90;;
5995;SDS011;3026;53.612;7.278;2024-01-07T10:43:29;4.40;;;2.50;;
5995;SDS011;3026;53.612;7.278;2024-01-07T10:45:56;4.47;;;2.07;;
5995;SDS011;3026;53.612;7.278;2024-01-07T10:48:30;2.80;;;2.20;;
5995;SDS011;3026;53.612;7.278;2024-01-07T10:50:59;3.70;;;2.20;;
5995;SDS011;3026;53.612;7.278;2024-01-07T10:53:28;2.63;;;2.30;;
5995;SDS011;3026;53.612;7.278;2024-01-07T10:56:03;3.53;;;2.10;;
5995;SDS011;3026;53.612;7.278;2024-01-07T10:58:33;5.77;;;3.10;;
5995;SDS011;3026;53.612;7.278;2024-01-07T11:01:07;4.03;;;2.90;;
5995;SDS011;3026;53.612;7.278;2024-01-07T11:03:38;5.63;;;2.93;;
5995;SDS011;3026;53.612;7.278;2024-01-07T11:06:14;4.83;;;2.83;;
5995;SDS011;3026;53.612;7.278;2024-01-07T11:08:46;5.07;;;2.83;;
5995;SDS011;3026;53.612;7.278;2024-01-07T11:11:21;4.83;;;2.40;;
5995;SDS011;3026;53.612;7.278;2024-01-07T11:13:55;2.70;;;2.10;;
5995;SDS011;3026;53.612;7.278;2024-01-07T11:19:08;4.90;;;2.80;;
5995;SDS011;3026;53.612;7.278;2024-01-07T11:21:36;6.07;;;3.27;;
5995;SDS011;3026;53.612;7.278;2024-01-07T11:24:03;4.03;;;2.33;;
5995;SDS011;3026;53.612;7.278;2024-01-07T11:26:31;2.77;;;1.97;;
5995;SDS011;3026;53.612;7.278;2024-01-07T11:29:01;4.27;;;2.53;;
5995;SDS011;3026;53.612;7.278;2024-01-07T11:37:10;3.27;;;1.80;;
5995;SDS011;3026;53.612;7.278;2024-01-07T11:39:41;4.30;;;1.97;;
5995;SDS011;3026;53.612;7.278;2024-01-07T11:42:09;4.57;;;2.00;;
5995;SDS011;3026;53.612;7.278;2024-01-07T11:44:44;3.67;;;1.60;;
5995;SDS011;3026;53.612;7.278;2024-01-07T11:47:12;3.63;;;1.50;;
5995;SDS011;3026;53.612;7.278;2024-01-07T11:49:42;3.23;;;1.90;;
5995;SDS011;3026;53.612;7.278;2024-01-07T11:52:10;3.17;;;1.80;;
5995;SDS011;3026;53.612;7.278;2024-01-07T11:54:41;3.07;;;2.10;;
5995;SDS011;3026;53.612;7.278;2024-01-07T11:57:09;4.60;;;2.33;;
5995;SDS011;3026;53.612;7.278;2024-01-07T11:59:39;4.60;;;2.50;;
5995;SDS011;3026;53.612;7.278;2024-01-07T12:02:07;2.93;;;2.13;;
5995;SDS011;3026;53.612;7.278;2024-01-07T12:04:34;4.03;;;2.50;;
5995;SDS011;3026;53.612;7.278;2024-01-07T12:07:02;2.33;;;1.97;;
5995;SDS011;3026;53.612;7.278;2024-01-07T12:09:31;5.07;;;2.10;;
5995;SDS011;3026;53.612;7.278;2024-01-07T12:11:58;3.90;;;2.47;;
5995;SDS011;3026;53.612;7.278;2024-01-07T12:14:26;4.43;;;2.03;;
5995;SDS011;3026;53.612;7.278;2024-01-07T12:16:58;7.10;;;2.37;;
5995;SDS011;3026;53.612;7.278;2024-01-07T12:19:25;4.97;;;2.67;;
5995;SDS011;3026;53.612;7.278;2024-01-07T12:22:02;5.37;;;2.63;;
5995;SDS011;3026;53.612;7.278;2024-01-07T12:24:30;3.60;;;2.10;;
5995;SDS011;3026;53.612;7.278;2024-01-07T12:27:03;5.30;;;2.90;;
5995;SDS011;3026;53.612;7.278;2024-01-07T12:29:30;8.37;;;2.50;;
5995;SDS011;3026;53.612;7.278;2024-01-07T12:32:03;2.97;;;2.10;;
5995;SDS011;3026;53.612;7.278;2024-01-07T12:34:35;2.00;;;1.60;;
5995;SDS011;3026;53.612;7.278;2024-01-07T12:37:06;2.30;;;1.93;;
5995;SDS011;3026;53.612;7.278;2024-01-07T12:39:33;4.93;;;2.10;;
5995;SDS011;3026;53.612;7.278;2024-01-07T12:42:03;2.90;;;2.10;;
5995;SDS011;3026;53.612;7.278;2024-01-07T12:44:34;3.17;;;2.20;;
5995;SDS011;3026;53.612;7.278;2024-01-07T12:47:05;3.67;;;1.70;;
5995;SDS011;3026;53.612;7.278;2024-01-07T12:49:32;8.90;;;2.93;;
5995;SDS011;3026;53.612;7.278;2024-01-07T12:52:06;3.57;;;2.30;;
5995;SDS011;3026;53.612;7.278;2024-01-07T12:54:34;4.47;;;2.30;;
5995;SDS011;3026;53.612;7.278;2024-01-07T12:57:03;2.80;;;1.63;;
5995;SDS011;3026;53.612;7.278;2024-01-07T12:59:30;5.13;;;2.00;;
5995;SDS011;3026;53.612;7.278;2024-01-07T13:01:59;3.13;;;2.10;;
5995;SDS011;3026;53.612;7.278;2024-01-07T13:04:28;3.27;;;1.90;;
5995;SDS011;3026;53.612;7.278;2024-01-07T13:06:59;4.60;;;2.40;;
5995;SDS011;3026;53.612;7.278;2024-01-07T13:09:29;5.97;;;2.40;;
5995;SDS011;3026;53.612;7.278;2024-01-07T13:14:46;2.73;;;1.70;;
5995;SDS011;3026;53.612;7.278;2024-01-07T13:17:16;4.40;;;1.97;;
5995;SDS011;3026;53.612;7.278;2024-01-07T13:19:46;3.53;;;2.10;;
5995;SDS011;3026;53.612;7.278;2024-01-07T13:22:13;3.27;;;2.17;;
5995;SDS011;3026;53.612;7.278;2024-01-07T13:24:42;4.33;;;1.63;;
5995;SDS011;3026;53.612;7.278;2024-01-07T13:27:10;2.43;;;1.60;;
5995;SDS011;3026;53.612;7.278;2024-01-07T13:29:39;3.27;;;1.47;;
5995;SDS011;3026;53.612;7.278;2024-01-07T13:32:08;3.63;;;1.80;;
5995;SDS011;3026;53.612;7.278;2024-01-07T13:34:40;3.77;;;1.70;;
5995;SDS011;3026;53.612;7.278;2024-01-07T13:37:09;5.17;;;1.80;;
5995;SDS011;3026;53.612;7.278;2024-01-07T13:39:37;4.50;;;1.60;;
5995;SDS011;3026;53.612;7.278;2024-01-07T13:42:04;2.33;;;1.70;;
5995;SDS011;3026;53.612;7.278;2024-01-07T13:44:33;3.43;;;1.43;;
5995;SDS011;3026;53.612;7.278;2024-01-07T13:47:01;1.87;;;1.57;;
5995;SDS011;3026;53.612;7.278;2024-01-07T13:49:32;2.53;;;1.70;;
5995;SDS011;3026;53.612;7.278;2024-01-07T13:52:01;2.70;;;1.70;;
5995;SDS011;3026;53.612;7.278;2024-01-07T13:54:33;4.07;;;2.13;;
5995;SDS011;3026;53.612;7.278;2024-01-07T13:57:00;4.20;;;2.27;;
5995;SDS011;3026;53.612;7.278;2024-01-07T13:59:29;3.23;;;2.00;;
5995;SDS011;3026;53.612;7.278;2024-01-07T14:01:56;3.23;;;2.27;;
5995;SDS011;3026;53.612;7.278;2024-01-07T14:04:28;4.47;;;2.00;;
5995;SDS011;3026;53.612;7.278;2024-01-07T14:07:02;3.50;;;1.80;;
5995;SDS011;3026;53.612;7.278;2024-01-07T14:09:33;4.90;;;2.17;;
5995;SDS011;3026;53.612;7.278;2024-01-07T14:12:00;3.23;;;1.80;;
5995;SDS011;3026;53.612;7.278;2024-01-07T14:14:28;3.67;;;2.13;;
5995;SDS011;3026;53.612;7.278;2024-01-07T14:16:55;5.03;;;2.10;;
5995;SDS011;3026;53.612;7.278;2024-01-07T14:19:24;4.13;;;1.80;;
5995;SDS011;3026;53.612;7.278;2024-01-07T14:21:53;4.57;;;1.60;;
5995;SDS011;3026;53.612;7.278;2024-01-07T14:24:21;3.63;;;1.80;;
5995;SDS011;3026;53.612;7.278;2024-01-07T14:26:50;2.20;;;1.47;;
5995;SDS011;3026;53.612;7.278;2024-01-07T14:29:18;1.70;;;1.33;;
5995;SDS011;3026;53.612;7.278;2024-01-07T14:31:45;4.73;;;1.43;;
5995;SDS011;3026;53.612;7.278;2024-01-07T14:34:14;7.53;;;1.43;;
5995;SDS011;3026;53.612;7.278;2024-01-07T14:36:42;3.10;;;1.50;;
5995;SDS011;3026;53.612;7.278;2024-01-07T14:39:10;3.90;;;1.50;;
5995;SDS011;3026;53.612;7.278;2024-01-07T14:41:38;1.27;;;1.13;;
5995;SDS011;3026;53.612;7.278;2024-01-07T14:44:13;1.50;;;1.10;;
5995;SDS011;3026;53.612;7.278;2024-01-07T14:46:40;1.77;;;1.30;;
5995;SDS011;3026;53.612;7.278;2024-01-07T14:49:09;4.00;;;1.40;;
5995;SDS011;3026;53.612;7.278;2024-01-07T14:51:54;3.60;;;1.40;;
5995;SDS011;3026;53.612;7.278;2024-01-07T14:54:24;1.87;;;1.33;;
5995;SDS011;3026;53.612;7.278;2024-01-07T14:56:51;2.37;;;1.10;;
5995;SDS011;3026;53.612;7.278;2024-01-07T14:59:21;3.20;;;1.53;;
5995;SDS011;3026;53.612;7.278;2024-01-07T15:01:48;4.20;;;1.50;;
5995;SDS011;3026;53.612;7.278;2024-01-07T15:04:19;1.83;;;1.43;;
5995;SDS011;3026;53.612;7.278;2024-01-07T15:06:48;1.60;;;1.27;;
5995;SDS011;3026;53.612;7.278;2024-01-07T15:09:17;4.33;;;1.50;;
5995;SDS011;3026;53.612;7.278;2024-01-07T15:11:50;4.17;;;1.90;;
5995;SDS011;3026;53.612;7.278;2024-01-07T15:14:18;2.30;;;1.33;;
5995;SDS011;3026;53.612;7.278;2024-01-07T15:16:50;2.77;;;1.67;;
5995;SDS011;3026;53.612;7.278;2024-01-07T15:19:19;2.70;;;1.70;;
5995;SDS011;3026;53.612;7.278;2024-01-07T15:21:47;2.73;;;1.37;;
5995;SDS011;3026;53.612;7.278;2024-01-07T15:24:16;3.90;;;1.80;;
5995;SDS011;3026;53.612;7.278;2024-01-07T15:26:48;3.20;;;1.43;;
5995;SDS011;3026;53.612;7.278;2024-01-07T15:29:16;1.83;;;1.40;;
5995;SDS011;3026;53.612;7.278;2024-01-07T15:31:48;3.57;;;1.57;;
5995;SDS011;3026;53.612;7.278;2024-01-07T15:34:16;4.03;;;1.60;;
5995;SDS011;3026;53.612;7.278;2024-01-07T15:36:53;3.60;;;1.63;;